createdAt,value
2018-03-28T11:25:52.788Z,400
2018-03-28T11:26:06.056Z,400
2018-03-28T11:26:18.772Z,405
2018-03-28T11:26:31.886Z,405
2018-03-28T11:26:46.395Z,405
2018-03-28T11:26:59.027Z,405
2018-03-28T11:27:13.145Z,405
2018-03-28T11:27:25.689Z,405
2018-03-28T11:27:39.448Z,405
2018-03-28T11:27:51.987Z,410
2018-03-28T11:28:04.270Z,410
2018-03-28T11:28:18.944Z,410
2018-03-28T11:28:32.069Z,410
2018-03-28T11:28:44.820Z,410
2018-03-28T11:28:57.523Z,415
2018-03-28T11:29:10.068Z,415
2018-03-28T11:29:22.605Z,415
2018-03-28T11:29:34.792Z,415
2018-03-28T11:29:46.936Z,420
2018-03-28T11:29:58.907Z,425
2018-03-28T11:30:11.044Z,425
2018-03-28T11:30:24.107Z,420
2018-03-28T11:30:36.755Z,425
2018-03-28T11:30:49.331Z,425
2018-03-28T11:31:01.843Z,425
2018-03-28T11:31:15.427Z,430
2018-03-28T11:31:28.214Z,430
2018-03-28T11:31:41.315Z,435
2018-03-28T11:31:55.824Z,435
2018-03-28T11:32:07.616Z,440
2018-03-28T11:32:20.098Z,440
2018-03-28T11:32:32.775Z,440
2018-03-28T11:32:46.159Z,440
2018-03-28T11:32:59.359Z,445
2018-03-28T11:33:12.130Z,445
2018-03-28T11:33:25.085Z,445
2018-03-28T11:33:42.044Z,445
2018-03-28T11:33:54.215Z,445
2018-03-28T11:34:07.559Z,445
2018-03-28T11:34:19.648Z,450
2018-03-28T11:34:32.203Z,445
2018-03-28T11:34:45.366Z,445
2018-03-28T11:34:58.585Z,450
2018-03-28T11:35:10.947Z,450
2018-03-28T11:35:23.973Z,450
2018-03-28T11:35:36.184Z,450
2018-03-28T11:35:48.379Z,450
2018-03-28T11:36:01.568Z,450
2018-03-28T11:36:13.757Z,450
2018-03-28T11:36:26.442Z,455
2018-03-28T11:36:39.529Z,450
2018-03-28T11:36:52.683Z,455
2018-03-28T11:37:05.873Z,455
2018-03-28T11:37:18.007Z,455
2018-03-28T11:37:30.364Z,455
2018-03-28T11:37:43.869Z,455
2018-03-28T11:37:56.933Z,455
2018-03-28T11:38:09.265Z,460
2018-03-28T11:38:21.969Z,460
2018-03-28T11:38:36.963Z,460
2018-03-28T11:38:49.672Z,460
2018-03-28T11:39:02.378Z,460
2018-03-28T11:39:17.427Z,465
2018-03-28T11:39:30.580Z,465
2018-03-28T11:39:43.678Z,465
2018-03-28T11:39:56.725Z,465
2018-03-28T11:40:08.555Z,465
2018-03-28T11:40:21.317Z,470
2018-03-28T11:40:35.418Z,470
2018-03-28T11:40:47.575Z,470
2018-03-28T11:40:59.777Z,470
2018-03-28T11:41:12.959Z,470
2018-03-28T11:41:26.813Z,475
2018-03-28T11:41:38.918Z,475
2018-03-28T11:41:51.896Z,475
2018-03-28T11:42:04.501Z,475
2018-03-28T11:42:17.849Z,480
2018-03-28T11:42:30.402Z,480
2018-03-28T11:42:42.538Z,480
2018-03-28T11:42:55.120Z,485
2018-03-28T11:43:08.435Z,485
2018-03-28T11:43:23.033Z,485
2018-03-28T11:43:35.688Z,485
2018-03-28T11:43:47.854Z,490
2018-03-28T11:44:01.199Z,490
2018-03-28T11:44:14.579Z,490
2018-03-28T11:44:26.292Z,490
2018-03-28T11:44:38.500Z,490
2018-03-28T11:44:50.965Z,495
2018-03-28T11:45:04.043Z,495
2018-03-28T11:45:17.082Z,495
2018-03-28T11:45:29.276Z,495
2018-03-28T11:45:41.884Z,495
2018-03-28T11:45:53.966Z,500
2018-03-28T11:46:07.034Z,500
2018-03-28T11:46:19.730Z,495
2018-03-28T11:46:32.618Z,495
2018-03-28T11:46:45.666Z,500
2018-03-28T11:46:58.790Z,495
2018-03-28T11:47:13.470Z,495
2018-03-28T11:47:25.597Z,495
2018-03-28T11:47:37.806Z,495
2018-03-28T11:47:51.781Z,500
2018-03-28T11:48:04.333Z,500
2018-03-28T11:48:17.083Z,500
2018-03-28T11:48:29.367Z,500
2018-03-28T11:48:42.604Z,505
2018-03-28T11:48:55.165Z,505
2018-03-28T11:49:08.903Z,505
2018-03-28T11:49:21.991Z,510
2018-03-28T11:49:35.604Z,510
2018-03-28T11:49:48.826Z,510
2018-03-28T11:50:01.857Z,515
2018-03-28T11:50:15.571Z,515
2018-03-28T11:50:28.146Z,515
2018-03-28T11:50:41.245Z,520
2018-03-28T11:50:54.073Z,520
2018-03-28T11:51:07.174Z,520
2018-03-28T11:51:21.071Z,520
2018-03-28T11:51:34.324Z,525
2018-03-28T11:51:46.938Z,525
2018-03-28T11:52:00.765Z,525
2018-03-28T11:52:13.792Z,530
2018-03-28T11:52:25.966Z,530
2018-03-28T11:52:38.884Z,535
2018-03-28T11:52:52.061Z,535
2018-03-28T11:53:05.157Z,535
2018-03-28T11:53:18.509Z,535
2018-03-28T11:53:31.052Z,535
2018-03-28T11:53:44.101Z,535
2018-03-28T11:53:56.766Z,540
2018-03-28T11:54:09.357Z,535
2018-03-28T11:54:22.031Z,540
2018-03-28T11:54:35.093Z,535
2018-03-28T11:54:47.156Z,540
2018-03-28T11:55:00.736Z,540
2018-03-28T11:55:14.085Z,535
2018-03-28T11:55:26.736Z,540
2018-03-28T11:55:39.410Z,535
2018-03-28T11:55:51.076Z,535
2018-03-28T11:56:03.716Z,535
2018-03-28T11:56:16.411Z,535
2018-03-28T11:56:28.486Z,540
2018-03-28T11:56:39.633Z,535
2018-03-28T11:56:52.985Z,540
2018-03-28T11:57:05.846Z,535
2018-03-28T11:57:17.885Z,535
2018-03-28T11:57:30.956Z,540
2018-03-28T11:57:43.576Z,535
2018-03-28T11:57:56.141Z,535
2018-03-28T11:58:07.751Z,540
2018-03-28T11:58:20.795Z,530
2018-03-28T11:58:34.222Z,530
2018-03-28T11:58:47.396Z,530
2018-03-28T11:58:59.854Z,530
2018-03-28T11:59:13.029Z,530
2018-03-28T11:59:25.712Z,530
2018-03-28T11:59:37.847Z,525
2018-03-28T11:59:50.015Z,525
2018-03-28T12:00:03.155Z,525
2018-03-28T12:00:16.226Z,525
2018-03-28T12:00:28.860Z,530
2018-03-28T12:00:42.012Z,530
2018-03-28T12:00:55.255Z,530
2018-03-28T12:01:08.428Z,535
2018-03-28T12:01:21.600Z,530
2018-03-28T12:01:34.560Z,535
2018-03-28T12:01:47.708Z,540
2018-03-28T12:02:00.861Z,535
2018-03-28T12:02:13.555Z,535
2018-03-28T12:02:26.227Z,535
2018-03-28T12:02:38.390Z,540
2018-03-28T12:02:51.716Z,545
2018-03-28T12:03:04.356Z,540
2018-03-28T12:03:16.490Z,540
2018-03-28T12:03:29.600Z,540
2018-03-28T12:03:43.010Z,540
2018-03-28T12:03:55.671Z,540
2018-03-28T12:04:07.861Z,540
2018-03-28T12:04:20.589Z,540
2018-03-28T12:04:34.338Z,545
2018-03-28T12:04:47.575Z,540
2018-03-28T12:05:00.693Z,540
2018-03-28T12:05:11.991Z,545
2018-03-28T12:05:25.407Z,540
2018-03-28T12:05:38.078Z,540
2018-03-28T12:05:51.261Z,540
2018-03-28T12:06:05.071Z,540
2018-03-28T12:06:17.277Z,540
2018-03-28T12:06:30.334Z,540
2018-03-28T12:06:44.419Z,540
2018-03-28T12:06:56.107Z,540
2018-03-28T12:07:08.750Z,540
2018-03-28T12:07:21.888Z,540
2018-03-28T12:07:34.515Z,540
2018-03-28T12:07:47.625Z,540
2018-03-28T12:08:00.666Z,540
2018-03-28T12:08:12.888Z,540
2018-03-28T12:08:25.545Z,540
2018-03-28T12:08:38.570Z,540
2018-03-28T12:08:52.346Z,540
2018-03-28T12:09:04.574Z,540
2018-03-28T12:09:17.367Z,540
2018-03-28T12:09:29.617Z,540
2018-03-28T12:09:41.753Z,540
2018-03-28T12:09:54.782Z,545
2018-03-28T12:10:08.655Z,540
2018-03-28T12:10:21.543Z,540
2018-03-28T12:10:34.683Z,540
2018-03-28T12:10:48.111Z,540
2018-03-28T12:11:00.086Z,540
2018-03-28T12:11:13.258Z,540
2018-03-28T12:11:26.362Z,540
2018-03-28T12:11:39.270Z,540
2018-03-28T12:11:54.212Z,540
2018-03-28T12:12:06.601Z,540
2018-03-28T12:12:19.163Z,540
2018-03-28T12:12:31.522Z,540
2018-03-28T12:12:44.674Z,540
2018-03-28T12:12:56.370Z,540
2018-03-28T12:13:08.555Z,540
2018-03-28T12:13:20.684Z,540
2018-03-28T12:13:34.427Z,540
2018-03-28T12:13:46.633Z,540
2018-03-28T12:13:58.833Z,540
2018-03-28T12:14:11.532Z,535
2018-03-28T12:14:24.712Z,535
2018-03-28T12:14:37.454Z,535
2018-03-28T12:14:49.572Z,535
2018-03-28T12:15:02.161Z,535
2018-03-28T12:15:15.397Z,535
2018-03-28T12:15:28.215Z,535
2018-03-28T12:15:40.922Z,530
2018-03-28T12:15:53.956Z,530
2018-03-28T12:16:07.316Z,530
2018-03-28T12:16:19.913Z,535
2018-03-28T12:16:31.158Z,530
2018-03-28T12:16:44.259Z,535
2018-03-28T12:16:56.827Z,525
2018-03-28T12:17:10.038Z,525
2018-03-28T12:17:23.179Z,525
2018-03-28T12:17:35.352Z,525
2018-03-28T12:17:48.009Z,525
2018-03-28T12:18:00.161Z,520
2018-03-28T12:18:12.673Z,520
2018-03-28T12:18:25.788Z,520
2018-03-28T12:18:39.127Z,525
2018-03-28T12:18:51.728Z,520
2018-03-28T12:19:04.280Z,520
2018-03-28T12:19:17.671Z,520
2018-03-28T12:19:30.720Z,520
2018-03-28T12:19:43.283Z,525
2018-03-28T12:19:55.982Z,520
2018-03-28T12:20:08.621Z,520
2018-03-28T12:20:21.747Z,525
2018-03-28T12:20:34.518Z,525
2018-03-28T12:20:47.183Z,525
2018-03-28T12:20:59.422Z,525
2018-03-28T12:21:12.108Z,525
2018-03-28T12:21:25.163Z,530
2018-03-28T12:21:37.796Z,530
2018-03-28T12:21:50.009Z,530
2018-03-28T12:22:04.500Z,535
2018-03-28T12:22:17.927Z,535
2018-03-28T12:22:30.248Z,535
2018-03-28T12:22:41.970Z,535
2018-03-28T12:22:55.072Z,535
2018-03-28T12:23:08.138Z,535
2018-03-28T12:23:20.702Z,540
2018-03-28T12:23:33.885Z,540
2018-03-28T12:23:46.463Z,540
2018-03-28T12:23:59.537Z,545
2018-03-28T12:24:12.726Z,545
2018-03-28T12:24:25.822Z,545
2018-03-28T12:24:38.456Z,545
2018-03-28T12:24:51.006Z,550
2018-03-28T12:25:03.267Z,550
2018-03-28T12:25:16.857Z,550
2018-03-28T12:25:30.341Z,555
2018-03-28T12:25:44.974Z,555
2018-03-28T12:25:56.702Z,555
2018-03-28T12:26:08.833Z,555
2018-03-28T12:26:22.170Z,560
2018-03-28T12:26:36.043Z,555
2018-03-28T12:26:48.187Z,555
2018-03-28T12:27:00.325Z,560
2018-03-28T12:27:11.983Z,560
2018-03-28T12:27:25.086Z,560
2018-03-28T12:27:37.795Z,560
2018-03-28T12:27:49.460Z,560
2018-03-28T12:28:02.186Z,560
2018-03-28T12:28:15.231Z,565
2018-03-28T12:28:28.395Z,560
2018-03-28T12:28:41.495Z,560
2018-03-28T12:28:54.069Z,560
2018-03-28T12:29:05.832Z,560
2018-03-28T12:29:17.923Z,560
2018-03-28T12:29:29.693Z,560
2018-03-28T12:29:42.352Z,560
2018-03-28T12:29:56.183Z,560
2018-03-28T12:30:09.292Z,555
2018-03-28T12:30:22.058Z,555
2018-03-28T12:30:36.320Z,555
2018-03-28T12:30:48.940Z,555
2018-03-28T12:31:00.155Z,555
2018-03-28T12:31:13.264Z,555
2018-03-28T12:31:25.902Z,555
2018-03-28T12:31:38.584Z,560
2018-03-28T12:31:51.199Z,555
2018-03-28T12:32:05.123Z,555
2018-03-28T12:32:17.945Z,555
2018-03-28T12:32:30.664Z,555
2018-03-28T12:32:43.925Z,555
2018-03-28T12:32:56.601Z,555
2018-03-28T12:33:09.154Z,555
2018-03-28T12:33:22.378Z,550
2018-03-28T12:33:35.432Z,555
2018-03-28T12:33:48.326Z,550
2018-03-28T12:34:01.554Z,550
2018-03-28T12:34:14.648Z,545
2018-03-28T12:34:27.845Z,545
2018-03-28T12:34:40.503Z,545
2018-03-28T12:34:52.724Z,545
2018-03-28T12:35:05.302Z,540
2018-03-28T12:35:17.961Z,540
2018-03-28T12:35:30.142Z,540
2018-03-28T12:35:42.775Z,540
2018-03-28T12:35:55.541Z,540
2018-03-28T12:36:07.699Z,540
2018-03-28T12:36:19.842Z,540
2018-03-28T12:36:31.531Z,540
2018-03-28T12:36:44.252Z,545
2018-03-28T12:36:55.862Z,545
2018-03-28T12:37:08.001Z,550
2018-03-28T12:37:20.109Z,550
2018-03-28T12:37:32.302Z,550
2018-03-28T12:37:45.525Z,550
2018-03-28T12:37:57.802Z,550
2018-03-28T12:38:09.921Z,545
2018-03-28T12:38:22.025Z,550
2018-03-28T12:38:35.123Z,550
2018-03-28T12:38:47.207Z,550
2018-03-28T12:38:59.343Z,550
2018-03-28T12:39:11.930Z,550
2018-03-28T12:39:24.673Z,555
2018-03-28T12:39:36.372Z,555
2018-03-28T12:39:48.627Z,560
2018-03-28T12:40:00.832Z,555
2018-03-28T12:40:13.084Z,555
2018-03-28T12:40:26.454Z,560
2018-03-28T12:40:39.900Z,560
2018-03-28T12:40:52.554Z,565
2018-03-28T12:41:05.162Z,560
2018-03-28T12:41:18.376Z,570
2018-03-28T12:41:31.156Z,565
2018-03-28T12:41:44.370Z,570
2018-03-28T12:41:57.040Z,565
2018-03-28T12:42:09.703Z,570
2018-03-28T12:42:22.434Z,575
2018-03-28T12:42:34.561Z,570
2018-03-28T12:42:48.302Z,570
2018-03-28T12:43:00.909Z,575
2018-03-28T12:43:13.705Z,580
2018-03-28T12:43:26.866Z,575
2018-03-28T12:43:38.949Z,575
2018-03-28T12:43:51.038Z,575
2018-03-28T12:44:04.694Z,575
2018-03-28T12:44:17.325Z,580
2018-03-28T12:44:28.950Z,580
2018-03-28T12:44:41.549Z,585
2018-03-28T12:44:54.247Z,585
2018-03-28T12:45:06.710Z,590
2018-03-28T12:45:19.747Z,595
2018-03-28T12:45:31.958Z,600
2018-03-28T12:45:45.009Z,600
2018-03-28T12:45:57.687Z,600
2018-03-28T12:46:09.873Z,610
2018-03-28T12:46:22.579Z,610
2018-03-28T12:46:35.168Z,615
2018-03-28T12:46:48.062Z,615
2018-03-28T12:47:00.745Z,620
2018-03-28T12:47:13.866Z,610
2018-03-28T12:47:26.614Z,610
2018-03-28T12:47:39.465Z,615
2018-03-28T12:47:53.329Z,615
2018-03-28T12:48:05.900Z,615
2018-03-28T12:48:18.509Z,615
2018-03-28T12:48:30.772Z,620
2018-03-28T12:48:42.914Z,615
2018-03-28T12:48:55.998Z,620
2018-03-28T12:49:08.733Z,620
2018-03-28T12:49:22.586Z,620
2018-03-28T12:49:35.998Z,620
2018-03-28T12:49:49.099Z,625
2018-03-28T12:50:02.881Z,625
2018-03-28T12:50:15.770Z,635
2018-03-28T12:50:28.463Z,640
2018-03-28T12:50:40.618Z,635
2018-03-28T12:50:53.307Z,630
2018-03-28T12:51:05.465Z,630
2018-03-28T12:51:17.710Z,635
2018-03-28T12:51:30.348Z,630
2018-03-28T12:51:43.075Z,630
2018-03-28T12:51:54.386Z,625
2018-03-28T12:52:07.009Z,625
2018-03-28T12:52:20.500Z,625
2018-03-28T12:52:33.700Z,625
2018-03-28T12:52:45.867Z,625
2018-03-28T12:52:58.126Z,625
2018-03-28T12:53:10.264Z,625
2018-03-28T12:53:23.386Z,630
2018-03-28T12:53:36.382Z,630
2018-03-28T12:53:49.087Z,630
2018-03-28T12:54:01.279Z,630
2018-03-28T12:54:14.015Z,635
2018-03-28T12:54:27.153Z,635
2018-03-28T12:54:39.961Z,635
2018-03-28T12:54:52.611Z,640
2018-03-28T12:55:05.816Z,635
2018-03-28T12:55:18.117Z,635
2018-03-28T12:55:31.734Z,640
2018-03-28T12:55:44.918Z,645
2018-03-28T12:55:57.772Z,645
2018-03-28T12:56:09.973Z,645
2018-03-28T12:56:23.013Z,650
2018-03-28T12:56:36.276Z,650
2018-03-28T12:56:48.709Z,650
2018-03-28T12:57:01.294Z,650
2018-03-28T12:57:14.383Z,655
2018-03-28T12:57:26.993Z,655
2018-03-28T12:57:39.311Z,655
2018-03-28T12:57:51.000Z,655
2018-03-28T12:58:04.209Z,655
2018-03-28T12:58:16.339Z,655
2018-03-28T12:58:28.076Z,655
2018-03-28T12:58:41.237Z,655
2018-03-28T12:58:53.994Z,655
2018-03-28T12:59:07.176Z,655
2018-03-28T12:59:19.858Z,655
2018-03-28T12:59:32.963Z,660
2018-03-28T12:59:46.420Z,660
2018-03-28T12:59:59.383Z,660
2018-03-28T13:00:12.179Z,665
2018-03-28T13:00:25.485Z,660
2018-03-28T13:00:38.845Z,665
2018-03-28T13:00:51.413Z,660
2018-03-28T13:01:05.256Z,660
2018-03-28T13:01:16.448Z,660
2018-03-28T13:01:29.448Z,660
2018-03-28T13:01:43.235Z,660
2018-03-28T13:01:55.820Z,655
2018-03-28T13:02:09.477Z,655
2018-03-28T13:02:22.739Z,650
2018-03-28T13:02:35.911Z,650
2018-03-28T13:02:52.661Z,650
2018-03-28T13:03:04.881Z,650
2018-03-28T13:03:18.178Z,650
2018-03-28T13:03:31.314Z,645
2018-03-28T13:03:43.984Z,650
2018-03-28T13:03:56.980Z,645
2018-03-28T13:04:09.526Z,650
2018-03-28T13:04:22.158Z,650
2018-03-28T13:04:34.776Z,650
2018-03-28T13:04:47.559Z,650
2018-03-28T13:05:00.297Z,650
2018-03-28T13:05:13.392Z,650
2018-03-28T13:05:26.845Z,655
2018-03-28T13:05:40.261Z,645
2018-03-28T13:05:53.981Z,650
2018-03-28T13:06:06.571Z,650
2018-03-28T13:06:19.609Z,650
2018-03-28T13:06:32.330Z,655
2018-03-28T13:06:45.489Z,655
2018-03-28T13:06:58.648Z,655
2018-03-28T13:07:11.163Z,660
2018-03-28T13:07:23.993Z,660
2018-03-28T13:07:40.174Z,660
2018-03-28T13:07:52.794Z,660
2018-03-28T13:08:06.012Z,660
2018-03-28T13:08:18.644Z,660
2018-03-28T13:08:31.911Z,670
2018-03-28T13:08:44.578Z,665
2018-03-28T13:08:57.086Z,670
2018-03-28T13:09:09.859Z,665
2018-03-28T13:09:22.972Z,670
2018-03-28T13:09:35.571Z,680
2018-03-28T13:09:48.662Z,685
2018-03-28T13:10:01.324Z,680
2018-03-28T13:10:13.871Z,675
2018-03-28T13:10:26.107Z,670
2018-03-28T13:10:38.763Z,670
2018-03-28T13:10:52.833Z,670
2018-03-28T13:11:05.040Z,670
2018-03-28T13:11:18.881Z,670
2018-03-28T13:11:32.745Z,670
2018-03-28T13:11:45.951Z,670
2018-03-28T13:11:59.095Z,670
2018-03-28T13:12:11.767Z,670
2018-03-28T13:12:23.871Z,670
2018-03-28T13:12:35.958Z,670
2018-03-28T13:12:48.545Z,670
2018-03-28T13:13:01.523Z,670
2018-03-28T13:13:14.645Z,670
2018-03-28T13:13:27.838Z,670
2018-03-28T13:13:40.446Z,670
2018-03-28T13:13:52.602Z,670
2018-03-28T13:14:05.745Z,670
2018-03-28T13:14:18.628Z,675
2018-03-28T13:14:31.250Z,675
2018-03-28T13:14:44.345Z,675
2018-03-28T13:14:56.644Z,675
2018-03-28T13:15:09.359Z,675
2018-03-28T13:15:22.000Z,675
2018-03-28T13:15:34.663Z,675
2018-03-28T13:15:47.537Z,675
2018-03-28T13:16:01.332Z,680
2018-03-28T13:16:13.498Z,675
2018-03-28T13:16:26.824Z,685
2018-03-28T13:16:39.938Z,675
2018-03-28T13:16:53.043Z,675
2018-03-28T13:17:05.648Z,680
2018-03-28T13:17:17.739Z,685
2018-03-28T13:17:30.098Z,680
2018-03-28T13:17:42.832Z,680
2018-03-28T13:17:55.917Z,680
2018-03-28T13:18:07.598Z,680
2018-03-28T13:18:19.781Z,680
2018-03-28T13:18:32.425Z,680
2018-03-28T13:18:45.104Z,680
2018-03-28T13:18:58.000Z,680
2018-03-28T13:19:10.483Z,685
2018-03-28T13:19:22.739Z,685
2018-03-28T13:19:34.944Z,690
2018-03-28T13:19:47.707Z,690
2018-03-28T13:19:59.896Z,685
2018-03-28T13:20:12.128Z,685
2018-03-28T13:20:25.199Z,685
2018-03-28T13:20:37.854Z,685
2018-03-28T13:20:50.941Z,685
2018-03-28T13:21:03.068Z,685
2018-03-28T13:21:15.760Z,685
2018-03-28T13:21:27.939Z,685
2018-03-28T13:21:41.423Z,685
2018-03-28T13:21:54.506Z,690
2018-03-28T13:22:06.682Z,685
2018-03-28T13:22:19.360Z,685
2018-03-28T13:22:31.496Z,685
2018-03-28T13:22:44.255Z,690
2018-03-28T13:22:56.796Z,685
2018-03-28T13:23:09.010Z,685
2018-03-28T13:23:21.627Z,685
2018-03-28T13:23:34.783Z,685
2018-03-28T13:23:47.402Z,685
2018-03-28T13:24:00.504Z,685
2018-03-28T13:24:13.233Z,685
2018-03-28T13:24:25.387Z,685
2018-03-28T13:24:38.277Z,690
2018-03-28T13:24:51.565Z,685
2018-03-28T13:25:04.326Z,690
2018-03-28T13:25:17.569Z,690
2018-03-28T13:25:30.257Z,690
2018-03-28T13:25:43.360Z,690
2018-03-28T13:25:55.749Z,690
2018-03-28T13:26:08.651Z,690
2018-03-28T13:26:20.356Z,690
2018-03-28T13:26:32.963Z,695
2018-03-28T13:26:46.186Z,695
2018-03-28T13:26:58.955Z,695
2018-03-28T13:27:11.565Z,695
2018-03-28T13:27:24.181Z,695
2018-03-28T13:27:36.442Z,700
2018-03-28T13:27:49.116Z,705
2018-03-28T13:28:02.293Z,700
2018-03-28T13:28:15.291Z,700
2018-03-28T13:28:27.496Z,700
2018-03-28T13:28:39.667Z,705
2018-03-28T13:28:51.783Z,705
2018-03-28T13:29:04.687Z,705
2018-03-28T13:29:16.812Z,710
2018-03-28T13:29:28.501Z,710
2018-03-28T13:29:41.714Z,705
2018-03-28T13:29:54.329Z,710
2018-03-28T13:30:07.378Z,715
2018-03-28T13:30:20.157Z,705
2018-03-28T13:30:32.373Z,705
2018-03-28T13:30:45.097Z,705
2018-03-28T13:30:57.923Z,705
2018-03-28T13:31:11.330Z,710
2018-03-28T13:31:25.114Z,710
2018-03-28T13:31:37.434Z,705
2018-03-28T13:31:50.610Z,705
2018-03-28T13:32:02.697Z,705
2018-03-28T13:32:14.825Z,705
2018-03-28T13:32:27.412Z,700
2018-03-28T13:32:40.569Z,700
2018-03-28T13:32:53.224Z,700
2018-03-28T13:33:05.958Z,700
2018-03-28T13:33:19.150Z,700
2018-03-28T13:33:31.331Z,695
2018-03-28T13:33:44.018Z,695
2018-03-28T13:33:57.210Z,695
2018-03-28T13:34:10.249Z,700
2018-03-28T13:34:23.467Z,690
2018-03-28T13:34:36.620Z,690
2018-03-28T13:34:49.281Z,690
2018-03-28T13:35:01.322Z,695
2018-03-28T13:35:13.535Z,690
2018-03-28T13:35:26.635Z,685
2018-03-28T13:35:39.405Z,685
2018-03-28T13:35:52.159Z,685
2018-03-28T13:36:05.288Z,685
2018-03-28T13:36:18.696Z,685
2018-03-28T13:36:31.236Z,685
2018-03-28T13:36:43.368Z,685
2018-03-28T13:36:59.324Z,685
2018-03-28T13:37:11.059Z,685
2018-03-28T13:37:24.164Z,685
2018-03-28T13:37:37.540Z,685
2018-03-28T13:37:51.006Z,680
2018-03-28T13:38:03.209Z,680
2018-03-28T13:38:16.999Z,680
2018-03-28T13:38:28.690Z,680
2018-03-28T13:38:41.873Z,680
2018-03-28T13:38:54.576Z,680
2018-03-28T13:39:07.723Z,680
2018-03-28T13:39:21.608Z,680
2018-03-28T13:39:34.126Z,685
2018-03-28T13:39:46.868Z,680
2018-03-28T13:39:59.056Z,680
2018-03-28T13:40:12.978Z,680
2018-03-28T13:40:26.859Z,680
2018-03-28T13:40:39.736Z,680
2018-03-28T13:40:52.445Z,675
2018-03-28T13:41:05.087Z,675
2018-03-28T13:41:17.700Z,675
2018-03-28T13:41:29.845Z,675
2018-03-28T13:41:42.143Z,675
2018-03-28T13:41:54.811Z,670
2018-03-28T13:42:08.799Z,670
2018-03-28T13:42:21.819Z,670
2018-03-28T13:42:34.327Z,670
2018-03-28T13:42:46.987Z,670
2018-03-28T13:42:59.677Z,670
2018-03-28T13:43:12.310Z,665
2018-03-28T13:43:25.457Z,665
2018-03-28T13:43:38.071Z,665
2018-03-28T13:43:50.717Z,665
2018-03-28T13:44:03.854Z,660
2018-03-28T13:44:16.001Z,665
2018-03-28T13:44:29.142Z,660
2018-03-28T13:44:42.387Z,660
2018-03-28T13:44:55.276Z,660
2018-03-28T13:45:07.556Z,660
2018-03-28T13:45:19.689Z,660
2018-03-28T13:45:32.731Z,665
2018-03-28T13:45:45.351Z,660
2018-03-28T13:45:58.186Z,660
2018-03-28T13:46:10.392Z,660
2018-03-28T13:46:23.087Z,660
2018-03-28T13:46:36.116Z,660
2018-03-28T13:46:48.231Z,660
2018-03-28T13:47:00.488Z,660
2018-03-28T13:47:12.627Z,660
2018-03-28T13:47:25.274Z,665
2018-03-28T13:47:37.486Z,660
2018-03-28T13:47:50.012Z,660
2018-03-28T13:48:03.040Z,660
2018-03-28T13:48:15.810Z,660
2018-03-28T13:48:28.375Z,660
2018-03-28T13:48:41.036Z,660
2018-03-28T13:48:54.197Z,660
2018-03-28T13:49:06.253Z,660
2018-03-28T13:49:19.012Z,660
2018-03-28T13:49:32.144Z,660
2018-03-28T13:49:44.708Z,665
2018-03-28T13:49:56.800Z,660
2018-03-28T13:50:09.891Z,660
2018-03-28T13:50:21.656Z,660
2018-03-28T13:50:34.307Z,655
2018-03-28T13:50:47.041Z,655
2018-03-28T13:51:00.246Z,655
2018-03-28T13:51:12.811Z,655
2018-03-28T13:51:24.986Z,660
2018-03-28T13:51:37.688Z,650
2018-03-28T13:51:50.360Z,650
2018-03-28T13:52:03.122Z,650
2018-03-28T13:52:16.862Z,655
2018-03-28T13:52:28.515Z,650
2018-03-28T13:52:41.119Z,650
2018-03-28T13:52:53.864Z,650
2018-03-28T13:53:06.434Z,650
2018-03-28T13:53:19.938Z,650
2018-03-28T13:53:32.525Z,650
2018-03-28T13:53:44.648Z,650
2018-03-28T13:53:57.217Z,650
2018-03-28T13:54:09.448Z,650
2018-03-28T13:54:23.313Z,650
2018-03-28T13:54:35.577Z,655
2018-03-28T13:54:48.627Z,660
2018-03-28T13:55:01.087Z,665
2018-03-28T13:55:13.669Z,655
2018-03-28T13:55:26.959Z,650
2018-03-28T13:55:40.767Z,645
2018-03-28T13:55:53.344Z,645
2018-03-28T13:56:05.169Z,645
2018-03-28T13:56:16.381Z,640
2018-03-28T13:56:30.145Z,640
2018-03-28T13:56:42.330Z,640
2018-03-28T13:56:54.958Z,640
2018-03-28T13:57:06.660Z,640
2018-03-28T13:57:19.744Z,640
2018-03-28T13:57:32.354Z,645
2018-03-28T13:57:46.207Z,640
2018-03-28T13:57:58.864Z,635
2018-03-28T13:58:12.051Z,635
2018-03-28T13:58:24.579Z,635
2018-03-28T13:58:37.301Z,640
2018-03-28T13:58:50.682Z,640
2018-03-28T13:59:03.840Z,640
2018-03-28T13:59:16.489Z,645
2018-03-28T13:59:29.211Z,640
2018-03-28T13:59:41.885Z,640
2018-03-28T13:59:54.073Z,640
2018-03-28T14:00:06.367Z,635
2018-03-28T14:00:19.042Z,640
2018-03-28T14:00:31.682Z,640
2018-03-28T14:00:43.857Z,645
2018-03-28T14:00:56.219Z,645
2018-03-28T14:01:09.337Z,650
2018-03-28T14:01:22.019Z,650
2018-03-28T14:01:34.279Z,650
2018-03-28T14:01:45.935Z,650
2018-03-28T14:01:58.611Z,655
2018-03-28T14:02:11.688Z,655
2018-03-28T14:02:24.889Z,650
2018-03-28T14:02:37.503Z,650
2018-03-28T14:02:49.132Z,660
2018-03-28T14:03:01.480Z,660
2018-03-28T14:03:13.213Z,660
2018-03-28T14:03:25.928Z,655
2018-03-28T14:03:38.613Z,650
2018-03-28T14:03:51.708Z,650
2018-03-28T14:04:04.921Z,650
2018-03-28T14:04:17.625Z,650
2018-03-28T14:04:29.811Z,650
2018-03-28T14:04:43.642Z,635
2018-03-28T14:04:56.844Z,630
2018-03-28T14:05:10.639Z,620
2018-03-28T14:05:23.758Z,620
2018-03-28T14:05:36.489Z,620
2018-03-28T14:05:48.737Z,620
2018-03-28T14:06:01.488Z,620
2018-03-28T14:06:14.206Z,630
2018-03-28T14:06:26.946Z,625
2018-03-28T14:06:39.569Z,615
2018-03-28T14:06:51.862Z,610
2018-03-28T14:07:04.438Z,610
2018-03-28T14:07:17.035Z,605
2018-03-28T14:07:29.169Z,610
2018-03-28T14:07:41.804Z,600
2018-03-28T14:07:55.611Z,595
2018-03-28T14:08:07.859Z,595
2018-03-28T14:08:20.553Z,600
2018-03-28T14:08:33.402Z,605
2018-03-28T14:08:45.151Z,610
2018-03-28T14:08:58.238Z,615
2018-03-28T14:09:10.921Z,620
2018-03-28T14:09:23.526Z,630
2018-03-28T14:09:37.425Z,635
2018-03-28T14:09:50.588Z,615
2018-03-28T14:10:03.181Z,615
2018-03-28T14:10:15.853Z,625
2018-03-28T14:10:28.553Z,630
2018-03-28T14:10:41.172Z,625
2018-03-28T14:10:53.758Z,625
2018-03-28T14:11:07.661Z,630
2018-03-28T14:11:20.697Z,630
2018-03-28T14:11:33.586Z,635
2018-03-28T14:11:46.243Z,635
2018-03-28T14:11:58.984Z,630
2018-03-28T14:12:11.263Z,635
2018-03-28T14:12:23.455Z,635
2018-03-28T14:12:36.616Z,635
2018-03-28T14:12:50.110Z,635
2018-03-28T14:13:03.315Z,640
2018-03-28T14:13:16.513Z,640
2018-03-28T14:13:28.680Z,645
2018-03-28T14:13:43.173Z,630
2018-03-28T14:13:55.957Z,635
2018-03-28T14:14:09.088Z,640
2018-03-28T14:14:21.786Z,655
2018-03-28T14:14:33.534Z,635
2018-03-28T14:14:46.482Z,635
2018-03-28T14:14:58.703Z,645
2018-03-28T14:15:10.954Z,640
2018-03-28T14:15:23.729Z,625
2018-03-28T14:15:35.875Z,615
2018-03-28T14:15:48.107Z,600
2018-03-28T14:16:01.526Z,600
2018-03-28T14:16:14.212Z,595
2018-03-28T14:16:27.328Z,595
2018-03-28T14:16:39.071Z,590
2018-03-28T14:16:51.392Z,600
2018-03-28T14:17:04.666Z,595
2018-03-28T14:17:16.300Z,590
2018-03-28T14:17:29.005Z,590
2018-03-28T14:17:41.887Z,590
2018-03-28T14:17:54.979Z,590
2018-03-28T14:18:08.283Z,595
2018-03-28T14:18:20.871Z,595
2018-03-28T14:18:34.304Z,605
2018-03-28T14:18:47.615Z,615
2018-03-28T14:18:59.754Z,615
2018-03-28T14:19:12.444Z,615
2018-03-28T14:19:24.620Z,605
2018-03-28T14:19:35.838Z,600
2018-03-28T14:19:49.467Z,600
2018-03-28T14:20:01.748Z,600
2018-03-28T14:20:14.816Z,605
2018-03-28T14:20:27.949Z,605
2018-03-28T14:20:41.021Z,615
2018-03-28T14:20:53.184Z,620
2018-03-28T14:21:05.353Z,630
2018-03-28T14:21:17.941Z,635
2018-03-28T14:21:30.531Z,640
2018-03-28T14:21:43.487Z,655
2018-03-28T14:21:56.999Z,650